sensor_id;sensor_type;location;lat;lon;timestamp;P1;durP1;ratioP1;P2;durP2;ratioP2
7166;SDS011;3625;51.762;14.320;2023-06-19T00:00:29;11.75;;;10.88;;
7166;SDS011;3625;51.762;14.320;2023-06-19T00:02:57;12.13;;;11.13;;
7166;SDS011;3625;51.762;14.320;2023-06-19T00:05:26;11.90;;;11.00;;
7166;SDS011;3625;51.762;14.320;2023-06-19T00:07:55;11.55;;;10.65;;
7166;SDS011;3625;51.762;14.320;2023-06-19T00:10:23;12.50;;;11.40;;
7166;SDS011;3625;51.762;14.320;2023-06-19T00:12:54;11.75;;;10.85;;
7166;SDS011;3625;51.762;14.320;2023-06-19T00:15:22;11.80;;;10.88;;
7166;SDS011;3625;51.762;14.320;2023-06-19T00:17:51;10.95;;;10.05;;
7166;SDS011;3625;51.762;14.320;2023-06-19T00:20:19;10.93;;;10.13;;
7166;SDS011;3625;51.762;14.320;2023-06-19T00:22:48;11.63;;;10.73;;
7166;SDS011;3625;51.762;14.320;2023-06-19T00:25:18;12.75;;;11.70;;
7166;SDS011;3625;51.762;14.320;2023-06-19T00:27:47;11.45;;;10.55;;
7166;SDS011;3625;51.762;14.320;2023-06-19T00:30:17;11.43;;;10.43;;
7166;SDS011;3625;51.762;14.320;2023-06-19T00:32:45;12.75;;;11.75;;
7166;SDS011;3625;51.762;14.320;2023-06-19T00:35:16;12.10;;;11.10;;
7166;SDS011;3625;51.762;14.320;2023-06-19T00:37:46;13.27;;;12.18;;
7166;SDS011;3625;51.762;14.320;2023-06-19T00:40:19;12.68;;;11.57;;
7166;SDS011;3625;51.762;14.320;2023-06-19T00:42:55;12.25;;;11.27;;
7166;SDS011;3625;51.762;14.320;2023-06-19T00:45:28;12.02;;;10.88;;
7166;SDS011;3625;51.762;14.320;2023-06-19T00:47:58;11.27;;;10.48;;
7166;SDS011;3625;51.762;14.320;2023-06-19T00:50:28;13.07;;;12.05;;
7166;SDS011;3625;51.762;14.320;2023-06-19T00:52:57;11.85;;;10.98;;
7166;SDS011;3625;51.762;14.320;2023-06-19T00:55:28;12.60;;;11.60;;
7166;SDS011;3625;51.762;14.320;2023-06-19T00:57:58;12.65;;;11.60;;
7166;SDS011;3625;51.762;14.320;2023-06-19T01:00:30;11.77;;;10.88;;
7166;SDS011;3625;51.762;14.320;2023-06-19T01:02:58;12.07;;;11.10;;
7166;SDS011;3625;51.762;14.320;2023-06-19T01:05:28;12.07;;;11.13;;
7166;SDS011;3625;51.762;14.320;2023-06-19T01:07:58;13.75;;;12.65;;
7166;SDS011;3625;51.762;14.320;2023-06-19T01:10:36;13.20;;;12.15;;
7166;SDS011;3625;51.762;14.320;2023-06-19T01:13:12;12.93;;;11.93;;
7166;SDS011;3625;51.762;14.320;2023-06-19T01:15:50;13.85;;;12.65;;
7166;SDS011;3625;51.762;14.320;2023-06-19T01:18:20;14.85;;;13.65;;
7166;SDS011;3625;51.762;14.320;2023-06-19T01:20:49;14.05;;;12.95;;
7166;SDS011;3625;51.762;14.320;2023-06-19T01:23:19;14.02;;;12.93;;
7166;SDS011;3625;51.762;14.320;2023-06-19T01:25:48;13.02;;;11.93;;
7166;SDS011;3625;51.762;14.320;2023-06-19T01:28:17;14.02;;;12.73;;
7166;SDS011;3625;51.762;14.320;2023-06-19T01:30:46;14.20;;;13.05;;
7166;SDS011;3625;51.762;14.320;2023-06-19T01:33:17;15.35;;;14.05;;
7166;SDS011;3625;51.762;14.320;2023-06-19T01:35:53;15.68;;;14.27;;
7166;SDS011;3625;51.762;14.320;2023-06-19T01:38:27;13.95;;;12.85;;
7166;SDS011;3625;51.762;14.320;2023-06-19T01:41:01;15.52;;;14.20;;
7166;SDS011;3625;51.762;14.320;2023-06-19T01:43:33;14.85;;;13.55;;
7166;SDS011;3625;51.762;14.320;2023-06-19T01:46:03;15.10;;;13.85;;
7166;SDS011;3625;51.762;14.320;2023-06-19T01:48:34;16.00;;;14.60;;
7166;SDS011;3625;51.762;14.320;2023-06-19T01:51:05;14.90;;;13.70;;
7166;SDS011;3625;51.762;14.320;2023-06-19T01:53:39;14.98;;;13.77;;
7166;SDS011;3625;51.762;14.320;2023-06-19T01:56:08;15.45;;;14.23;;
7166;SDS011;3625;51.762;14.320;2023-06-19T01:58:37;15.07;;;13.88;;
7166;SDS011;3625;51.762;14.320;2023-06-19T02:01:06;15.85;;;14.45;;
7166;SDS011;3625;51.762;14.320;2023-06-19T02:14:53;14.27;;;13.07;;
7166;SDS011;3625;51.762;14.320;2023-06-19T02:17:22;14.43;;;13.30;;
7166;SDS011;3625;51.762;14.320;2023-06-19T02:19:52;15.63;;;14.32;;
7166;SDS011;3625;51.762;14.320;2023-06-19T02:22:20;14.77;;;13.60;;
7166;SDS011;3625;51.762;14.320;2023-06-19T02:24:49;16.65;;;15.25;;
7166;SDS011;3625;51.762;14.320;2023-06-19T02:27:17;15.55;;;14.27;;
7166;SDS011;3625;51.762;14.320;2023-06-19T02:29:46;15.25;;;13.82;;
7166;SDS011;3625;51.762;14.320;2023-06-19T02:32:16;15.13;;;13.93;;
7166;SDS011;3625;51.762;14.320;2023-06-19T02:34:44;15.43;;;14.13;;
7166;SDS011;3625;51.762;14.320;2023-06-19T02:37:13;15.55;;;14.25;;
7166;SDS011;3625;51.762;14.320;2023-06-19T02:39:59;15.93;;;14.55;;
7166;SDS011;3625;51.762;14.320;2023-06-19T02:42:31;15.63;;;14.43;;
7166;SDS011;3625;51.762;14.320;2023-06-19T02:45:00;15.27;;;13.98;;
7166;SDS011;3625;51.762;14.320;2023-06-19T02:47:31;14.90;;;13.68;;
7166;SDS011;3625;51.762;14.320;2023-06-19T02:50:01;16.45;;;14.90;;
7166;SDS011;3625;51.762;14.320;2023-06-19T02:52:31;15.77;;;14.38;;
7166;SDS011;3625;51.762;14.320;2023-06-19T02:54:59;14.98;;;13.73;;
7166;SDS011;3625;51.762;14.320;2023-06-19T02:57:28;15.45;;;14.15;;
7166;SDS011;3625;51.762;14.320;2023-06-19T02:59:57;15.63;;;14.32;;
7166;SDS011;3625;51.762;14.320;2023-06-19T03:02:25;15.07;;;13.88;;
7166;SDS011;3625;51.762;14.320;2023-06-19T03:04:58;16.45;;;15.05;;
7166;SDS011;3625;51.762;14.320;2023-06-19T03:07:26;15.20;;;14.00;;
7166;SDS011;3625;51.762;14.320;2023-06-19T03:09:58;16.88;;;15.38;;
7166;SDS011;3625;51.762;14.320;2023-06-19T03:13:26;15.93;;;14.63;;
7166;SDS011;3625;51.762;14.320;2023-06-19T03:16:21;16.08;;;14.68;;
7166;SDS011;3625;51.762;14.320;2023-06-19T03:18:50;17.25;;;15.68;;
7166;SDS011;3625;51.762;14.320;2023-06-19T03:21:23;16.15;;;14.75;;
7166;SDS011;3625;51.762;14.320;2023-06-19T03:23:51;15.15;;;13.85;;
7166;SDS011;3625;51.762;14.320;2023-06-19T03:26:23;15.40;;;14.20;;
7166;SDS011;3625;51.762;14.320;2023-06-19T03:28:54;15.77;;;14.48;;
7166;SDS011;3625;51.762;14.320;2023-06-19T03:31:25;15.13;;;13.82;;
7166;SDS011;3625;51.762;14.320;2023-06-19T03:33:54;15.38;;;14.10;;
7166;SDS011;3625;51.762;14.320;2023-06-19T03:36:25;14.52;;;13.43;;
7166;SDS011;3625;51.762;14.320;2023-06-19T03:38:54;15.88;;;14.35;;
7166;SDS011;3625;51.762;14.320;2023-06-19T03:41:26;16.33;;;15.02;;
7166;SDS011;3625;51.762;14.320;2023-06-19T03:43:55;16.38;;;14.93;;
7166;SDS011;3625;51.762;14.320;2023-06-19T03:46:24;16.52;;;15.13;;
7166;SDS011;3625;51.762;14.320;2023-06-19T03:48:52;16.08;;;14.80;;
7166;SDS011;3625;51.762;14.320;2023-06-19T03:51:21;15.60;;;14.30;;
7166;SDS011;3625;51.762;14.320;2023-06-19T03:53:51;17.08;;;15.68;;
7166;SDS011;3625;51.762;14.320;2023-06-19T03:56:19;15.07;;;13.88;;
7166;SDS011;3625;51.762;14.320;2023-06-19T03:58:48;14.82;;;13.63;;
7166;SDS011;3625;51.762;14.320;2023-06-19T04:01:16;15.55;;;14.18;;
7166;SDS011;3625;51.762;14.320;2023-06-19T04:03:47;14.65;;;13.45;;
7166;SDS011;3625;51.762;14.320;2023-06-19T04:06:16;14.63;;;13.40;;
7166;SDS011;3625;51.762;14.320;2023-06-19T04:08:45;14.00;;;12.80;;
7166;SDS011;3625;51.762;14.320;2023-06-19T04:11:15;14.98;;;13.68;;
7166;SDS011;3625;51.762;14.320;2023-06-19T04:13:44;13.55;;;12.48;;
7166;SDS011;3625;51.762;14.320;2023-06-19T04:16:13;15.85;;;14.50;;
7166;SDS011;3625;51.762;14.320;2023-06-19T04:18:41;13.85;;;12.57;;
7166;SDS011;3625;51.762;14.320;2023-06-19T04:21:10;15.27;;;13.98;;
7166;SDS011;3625;51.762;14.320;2023-06-19T04:23:39;14.95;;;13.65;;
7166;SDS011;3625;51.762;14.320;2023-06-19T04:26:07;16.27;;;14.80;;
7166;SDS011;3625;51.762;14.320;2023-06-19T04:28:37;15.07;;;13.88;;
7166;SDS011;3625;51.762;14.320;2023-06-19T04:31:06;14.25;;;13.07;;
7166;SDS011;3625;51.762;14.320;2023-06-19T04:33:34;15.48;;;14.05;;
7166;SDS011;3625;51.762;14.320;2023-06-19T04:36:03;15.02;;;13.73;;
7166;SDS011;3625;51.762;14.320;2023-06-19T04:38:32;16.02;;;14.80;;
7166;SDS011;3625;51.762;14.320;2023-06-19T04:41:00;15.45;;;14.15;;
7166;SDS011;3625;51.762;14.320;2023-06-19T04:43:29;14.25;;;13.15;;
7166;SDS011;3625;51.762;14.320;2023-06-19T04:45:59;15.95;;;14.60;;
7166;SDS011;3625;51.762;14.320;2023-06-19T04:48:30;15.07;;;13.88;;
7166;SDS011;3625;51.762;14.320;2023-06-19T04:50:58;15.43;;;14.23;;
7166;SDS011;3625;51.762;14.320;2023-06-19T04:53:27;15.90;;;14.60;;
7166;SDS011;3625;51.762;14.320;2023-06-19T04:55:56;15.85;;;14.55;;
7166;SDS011;3625;51.762;14.320;2023-06-19T04:58:27;14.93;;;13.73;;
7166;SDS011;3625;51.762;14.320;2023-06-19T05:00:56;14.27;;;12.90;;
7166;SDS011;3625;51.762;14.320;2023-06-19T05:03:26;14.00;;;12.82;;
7166;SDS011;3625;51.762;14.320;2023-06-19T05:05:55;15.38;;;14.10;;
7166;SDS011;3625;51.762;14.320;2023-06-19T05:08:23;15.30;;;14.00;;
7166;SDS011;3625;51.762;14.320;2023-06-19T05:10:52;14.02;;;12.82;;
7166;SDS011;3625;51.762;14.320;2023-06-19T05:13:21;14.50;;;13.30;;
7166;SDS011;3625;51.762;14.320;2023-06-19T05:15:49;14.32;;;13.13;;
7166;SDS011;3625;51.762;14.320;2023-06-19T05:18:21;14.88;;;13.68;;
7166;SDS011;3625;51.762;14.320;2023-06-19T05:20:49;13.98;;;12.77;;
7166;SDS011;3625;51.762;14.320;2023-06-19T05:23:21;14.35;;;13.15;;
7166;SDS011;3625;51.762;14.320;2023-06-19T05:25:49;13.98;;;12.82;;
7166;SDS011;3625;51.762;14.320;2023-06-19T05:28:18;13.88;;;12.68;;
7166;SDS011;3625;51.762;14.320;2023-06-19T05:30:46;13.55;;;12.45;;
7166;SDS011;3625;51.762;14.320;2023-06-19T05:33:16;13.57;;;12.30;;
7166;SDS011;3625;51.762;14.320;2023-06-19T05:35:46;14.65;;;13.35;;
7166;SDS011;3625;51.762;14.320;2023-06-19T05:38:21;13.45;;;12.35;;
7166;SDS011;3625;51.762;14.320;2023-06-19T05:40:52;13.65;;;12.45;;
7166;SDS011;3625;51.762;14.320;2023-06-19T05:43:22;13.73;;;12.63;;
7166;SDS011;3625;51.762;14.320;2023-06-19T05:45:51;13.90;;;12.43;;
7166;SDS011;3625;51.762;14.320;2023-06-19T05:48:20;12.20;;;11.10;;
7166;SDS011;3625;51.762;14.320;2023-06-19T05:50:50;11.88;;;10.90;;
7166;SDS011;3625;51.762;14.320;2023-06-19T05:53:19;12.98;;;11.88;;
7166;SDS011;3625;51.762;14.320;2023-06-19T05:55:48;11.60;;;10.73;;
7166;SDS011;3625;51.762;14.320;2023-06-19T05:58:16;11.57;;;10.68;;
7166;SDS011;3625;51.762;14.320;2023-06-19T06:00:46;13.35;;;12.25;;
7166;SDS011;3625;51.762;14.320;2023-06-19T06:03:15;14.15;;;12.88;;
7166;SDS011;3625;51.762;14.320;2023-06-19T06:05:43;12.63;;;11.52;;
7166;SDS011;3625;51.762;14.320;2023-06-19T06:08:16;12.82;;;11.55;;
7166;SDS011;3625;51.762;14.320;2023-06-19T06:10:45;11.75;;;10.75;;
7166;SDS011;3625;51.762;14.320;2023-06-19T06:13:14;13.25;;;12.25;;
7166;SDS011;3625;51.762;14.320;2023-06-19T06:15:51;12.70;;;11.70;;
7166;SDS011;3625;51.762;14.320;2023-06-19T06:18:32;13.52;;;12.32;;
7166;SDS011;3625;51.762;14.320;2023-06-19T06:21:11;12.48;;;11.35;;
7166;SDS011;3625;51.762;14.320;2023-06-19T06:24:05;13.48;;;12.38;;
7166;SDS011;3625;51.762;14.320;2023-06-19T06:26:36;12.82;;;11.63;;
7166;SDS011;3625;51.762;14.320;2023-06-19T06:29:07;13.60;;;12.40;;
7166;SDS011;3625;51.762;14.320;2023-06-19T06:34:06;13.60;;;12.30;;
7166;SDS011;3625;51.762;14.320;2023-06-19T06:36:38;13.32;;;12.23;;
7166;SDS011;3625;51.762;14.320;2023-06-19T06:39:28;13.35;;;12.15;;
7166;SDS011;3625;51.762;14.320;2023-06-19T06:41:57;14.00;;;12.77;;
7166;SDS011;3625;51.762;14.320;2023-06-19T06:44:26;11.80;;;10.90;;
7166;SDS011;3625;51.762;14.320;2023-06-19T06:46:55;11.40;;;10.40;;
7166;SDS011;3625;51.762;14.320;2023-06-19T06:49:26;11.40;;;10.48;;
7166;SDS011;3625;51.762;14.320;2023-06-19T06:51:56;12.00;;;10.93;;
7166;SDS011;3625;51.762;14.320;2023-06-19T06:54:25;11.07;;;10.10;;
7166;SDS011;3625;51.762;14.320;2023-06-19T06:56:54;12.40;;;11.40;;
7166;SDS011;3625;51.762;14.320;2023-06-19T06:59:25;12.13;;;11.02;;
7166;SDS011;3625;51.762;14.320;2023-06-19T07:01:54;12.45;;;11.35;;
7166;SDS011;3625;51.762;14.320;2023-06-19T07:04:23;14.23;;;12.02;;
7166;SDS011;3625;51.762;14.320;2023-06-19T07:06:52;12.20;;;11.20;;
7166;SDS011;3625;51.762;14.320;2023-06-19T07:09:20;11.55;;;10.35;;
7166;SDS011;3625;51.762;14.320;2023-06-19T07:11:49;12.43;;;11.15;;
7166;SDS011;3625;51.762;14.320;2023-06-19T07:14:21;12.45;;;11.45;;
7166;SDS011;3625;51.762;14.320;2023-06-19T07:16:49;12.05;;;11.15;;
7166;SDS011;3625;51.762;14.320;2023-06-19T07:19:18;12.23;;;11.23;;
7166;SDS011;3625;51.762;14.320;2023-06-19T07:21:49;12.45;;;11.45;;
7166;SDS011;3625;51.762;14.320;2023-06-19T07:24:18;11.60;;;10.70;;
7166;SDS011;3625;51.762;14.320;2023-06-19T07:26:47;12.50;;;11.50;;
7166;SDS011;3625;51.762;14.320;2023-06-19T07:29:16;11.73;;;10.73;;
7166;SDS011;3625;51.762;14.320;2023-06-19T07:31:47;11.32;;;10.32;;
7166;SDS011;3625;51.762;14.320;2023-06-19T07:34:16;12.15;;;11.05;;
7166;SDS011;3625;51.762;14.320;2023-06-19T07:36:45;11.38;;;10.43;;
7166;SDS011;3625;51.762;14.320;2023-06-19T07:39:13;11.35;;;10.35;;
7166;SDS011;3625;51.762;14.320;2023-06-19T07:41:42;11.00;;;10.05;;
7166;SDS011;3625;51.762;14.320;2023-06-19T07:44:12;11.45;;;10.55;;
7166;SDS011;3625;51.762;14.320;2023-06-19T07:46:44;10.48;;;9.68;;
7166;SDS011;3625;51.762;14.320;2023-06-19T07:49:14;10.07;;;9.23;;
7166;SDS011;3625;51.762;14.320;2023-06-19T07:51:42;11.27;;;10.18;;
7166;SDS011;3625;51.762;14.320;2023-06-19T07:54:13;10.50;;;9.35;;
7166;SDS011;3625;51.762;14.320;2023-06-19T07:56:42;10.82;;;9.93;;
7166;SDS011;3625;51.762;14.320;2023-06-19T07:59:10;10.63;;;9.63;;
7166;SDS011;3625;51.762;14.320;2023-06-19T08:01:40;10.63;;;9.50;;
7166;SDS011;3625;51.762;14.320;2023-06-19T08:04:10;9.85;;;8.95;;
7166;SDS011;3625;51.762;14.320;2023-06-19T08:06:40;10.43;;;9.52;;
7166;SDS011;3625;51.762;14.320;2023-06-19T08:09:08;9.85;;;9.05;;
7166;SDS011;3625;51.762;14.320;2023-06-19T08:11:37;9.13;;;8.30;;
7166;SDS011;3625;51.762;14.320;2023-06-19T08:14:05;9.40;;;8.50;;
7166;SDS011;3625;51.762;14.320;2023-06-19T08:16:34;7.70;;;7.10;;
7166;SDS011;3625;51.762;14.320;2023-06-19T08:19:05;8.80;;;7.93;;
7166;SDS011;3625;51.762;14.320;2023-06-19T08:21:34;8.52;;;7.43;;
7166;SDS011;3625;51.762;14.320;2023-06-19T08:24:04;8.38;;;7.72;;
7166;SDS011;3625;51.762;14.320;2023-06-19T08:26:33;9.73;;;7.60;;
7166;SDS011;3625;51.762;14.320;2023-06-19T08:29:02;8.20;;;7.50;;
7166;SDS011;3625;51.762;14.320;2023-06-19T08:31:30;8.07;;;7.38;;
7166;SDS011;3625;51.762;14.320;2023-06-19T08:34:00;7.32;;;6.72;;
7166;SDS011;3625;51.762;14.320;2023-06-19T08:36:33;7.75;;;7.15;;
7166;SDS011;3625;51.762;14.320;2023-06-19T08:39:02;7.95;;;7.25;;
7166;SDS011;3625;51.762;14.320;2023-06-19T08:41:36;8.15;;;7.13;;
7166;SDS011;3625;51.762;14.320;2023-06-19T08:44:08;7.43;;;6.72;;
7166;SDS011;3625;51.762;14.320;2023-06-19T08:46:37;9.13;;;7.60;;
7166;SDS011;3625;51.762;14.320;2023-06-19T08:49:09;7.47;;;6.78;;
7166;SDS011;3625;51.762;14.320;2023-06-19T08:51:37;9.32;;;7.28;;
7166;SDS011;3625;51.762;14.320;2023-06-19T08:54:21;7.15;;;6.40;;
7166;SDS011;3625;51.762;14.320;2023-06-19T08:57:02;7.22;;;6.50;;
7166;SDS011;3625;51.762;14.320;2023-06-19T08:59:41;7.03;;;6.43;;
7166;SDS011;3625;51.762;14.320;2023-06-19T09:02:17;6.85;;;6.20;;
7166;SDS011;3625;51.762;14.320;2023-06-19T09:04:50;7.47;;;6.78;;
7166;SDS011;3625;51.762;14.320;2023-06-19T09:07:21;6.57;;;6.07;;
7166;SDS011;3625;51.762;14.320;2023-06-19T09:09:51;7.10;;;6.25;;
7166;SDS011;3625;51.762;14.320;2023-06-19T09:12:20;7.22;;;6.13;;
7166;SDS011;3625;51.762;14.320;2023-06-19T09:14:56;7.68;;;6.32;;
7166;SDS011;3625;51.762;14.320;2023-06-19T09:17:24;7.60;;;6.07;;
7166;SDS011;3625;51.762;14.320;2023-06-19T09:19:57;6.68;;;6.05;;
7166;SDS011;3625;51.762;14.320;2023-06-19T09:22:28;8.70;;;6.45;;
7166;SDS011;3625;51.762;14.320;2023-06-19T09:25:03;6.78;;;6.18;;
7166;SDS011;3625;51.762;14.320;2023-06-19T09:27:42;6.65;;;6.05;;
7166;SDS011;3625;51.762;14.320;2023-06-19T09:30:14;6.78;;;5.55;;
7166;SDS011;3625;51.762;14.320;2023-06-19T09:32:45;7.65;;;6.95;;
7166;SDS011;3625;51.762;14.320;2023-06-19T09:35:14;7.05;;;6.45;;
7166;SDS011;3625;51.762;14.320;2023-06-19T09:37:43;6.93;;;6.32;;
7166;SDS011;3625;51.762;14.320;2023-06-19T09:40:16;6.30;;;5.80;;
7166;SDS011;3625;51.762;14.320;2023-06-19T09:42:45;6.85;;;6.25;;
7166;SDS011;3625;51.762;14.320;2023-06-19T09:45:28;7.00;;;6.40;;
7166;SDS011;3625;51.762;14.320;2023-06-19T09:47:59;6.18;;;5.57;;
7166;SDS011;3625;51.762;14.320;2023-06-19T09:50:45;7.32;;;6.47;;
7166;SDS011;3625;51.762;14.320;2023-06-19T09:53:18;7.28;;;6.53;;
7166;SDS011;3625;51.762;14.320;2023-06-19T09:55:49;7.43;;;6.63;;
7166;SDS011;3625;51.762;14.320;2023-06-19T09:58:18;6.60;;;6.10;;
7166;SDS011;3625;51.762;14.320;2023-06-19T10:00:51;6.72;;;6.13;;
7166;SDS011;3625;51.762;14.320;2023-06-19T10:03:29;7.15;;;6.47;;
7166;SDS011;3625;51.762;14.320;2023-06-19T10:06:01;7.07;;;6.30;;
7166;SDS011;3625;51.762;14.320;2023-06-19T10:08:32;6.68;;;6.18;;
7166;SDS011;3625;51.762;14.320;2023-06-19T10:11:09;6.30;;;5.80;;
7166;SDS011;3625;51.762;14.320;2023-06-19T10:13:39;6.20;;;5.60;;
7166;SDS011;3625;51.762;14.320;2023-06-19T10:16:19;5.85;;;5.35;;
7166;SDS011;3625;51.762;14.320;2023-06-19T10:18:49;6.18;;;5.68;;
7166;SDS011;3625;51.762;14.320;2023-06-19T10:21:19;6.43;;;5.88;;
7166;SDS011;3625;51.762;14.320;2023-06-19T10:23:56;6.28;;;5.78;;
7166;SDS011;3625;51.762;14.320;2023-06-19T10:26:31;6.03;;;5.53;;
7166;SDS011;3625;51.762;14.320;2023-06-19T10:29:15;5.45;;;5.03;;
7166;SDS011;3625;51.762;14.320;2023-06-19T10:31:45;5.38;;;4.97;;
7166;SDS011;3625;51.762;14.320;2023-06-19T10:34:13;6.47;;;5.97;;
7166;SDS011;3625;51.762;14.320;2023-06-19T10:36:45;5.50;;;5.03;;
7166;SDS011;3625;51.762;14.320;2023-06-19T10:39:15;6.07;;;5.57;;
7166;SDS011;3625;51.762;14.320;2023-06-19T10:41:48;5.80;;;5.30;;
7166;SDS011;3625;51.762;14.320;2023-06-19T10:44:17;6.00;;;5.32;;
7166;SDS011;3625;51.762;14.320;2023-06-19T10:46:45;5.70;;;5.20;;
7166;SDS011;3625;51.762;14.320;2023-06-19T10:49:14;6.03;;;5.50;;
7166;SDS011;3625;51.762;14.320;2023-06-19T10:51:43;5.88;;;5.38;;
7166;SDS011;3625;51.762;14.320;2023-06-19T10:54:11;5.88;;;5.38;;
7166;SDS011;3625;51.762;14.320;2023-06-19T10:56:40;5.75;;;5.25;;
7166;SDS011;3625;51.762;14.320;2023-06-19T10:59:11;6.60;;;6.00;;
7166;SDS011;3625;51.762;14.320;2023-06-19T11:01:40;6.05;;;5.55;;
7166;SDS011;3625;51.762;14.320;2023-06-19T11:04:13;6.15;;;5.30;;
7166;SDS011;3625;51.762;14.320;2023-06-19T11:06:43;5.45;;;4.95;;
7166;SDS011;3625;51.762;14.320;2023-06-19T11:09:13;5.43;;;4.93;;
7166;SDS011;3625;51.762;14.320;2023-06-19T11:11:43;5.75;;;5.25;;
7166;SDS011;3625;51.762;14.320;2023-06-19T11:14:17;6.53;;;6.03;;
7166;SDS011;3625;51.762;14.320;2023-06-19T11:16:48;5.50;;;5.10;;
7166;SDS011;3625;51.762;14.320;2023-06-19T11:19:18;6.32;;;5.70;;
7166;SDS011;3625;51.762;14.320;2023-06-19T11:21:50;6.72;;;5.60;;
7166;SDS011;3625;51.762;14.320;2023-06-19T11:24:22;5.47;;;4.97;;
7166;SDS011;3625;51.762;14.320;2023-06-19T11:26:52;5.65;;;5.25;;
7166;SDS011;3625;51.762;14.320;2023-06-19T11:29:23;5.97;;;5.45;;
7166;SDS011;3625;51.762;14.320;2023-06-19T11:32:04;6.10;;;5.50;;
7166;SDS011;3625;51.762;14.320;2023-06-19T11:34:38;6.22;;;5.72;;
7166;SDS011;3625;51.762;14.320;2023-06-19T11:37:11;5.80;;;5.30;;
7166;SDS011;3625;51.762;14.320;2023-06-19T11:39:41;5.60;;;5.15;;
7166;SDS011;3625;51.762;14.320;2023-06-19T11:42:11;6.05;;;5.55;;
7166;SDS011;3625;51.762;14.320;2023-06-19T11:44:53;5.85;;;5.35;;
7166;SDS011;3625;51.762;14.320;2023-06-19T11:47:22;6.30;;;5.85;;
7166;SDS011;3625;51.762;14.320;2023-06-19T11:49:51;6.47;;;5.97;;
7166;SDS011;3625;51.762;14.320;2023-06-19T11:52:21;6.28;;;5.75;;
7166;SDS011;3625;51.762;14.320;2023-06-19T11:54:56;6.60;;;6.03;;
7166;SDS011;3625;51.762;14.320;2023-06-19T11:57:24;5.82;;;5.40;;
7166;SDS011;3625;51.762;14.320;2023-06-19T11:59:57;6.18;;;5.65;;
7166;SDS011;3625;51.762;14.320;2023-06-19T12:02:25;6.20;;;5.70;;
7166;SDS011;3625;51.762;14.320;2023-06-19T12:04:54;6.70;;;6.20;;
7166;SDS011;3625;51.762;14.320;2023-06-19T12:07:23;6.45;;;5.57;;
7166;SDS011;3625;51.762;14.320;2023-06-19T12:09:52;7.10;;;6.47;;
7166;SDS011;3625;51.762;14.320;2023-06-19T12:12:21;6.07;;;5.50;;
7166;SDS011;3625;51.762;14.320;2023-06-19T12:14:50;6.43;;;5.93;;
7166;SDS011;3625;51.762;14.320;2023-06-19T12:17:20;7.00;;;6.40;;
7166;SDS011;3625;51.762;14.320;2023-06-19T12:19:49;6.72;;;6.05;;
7166;SDS011;3625;51.762;14.320;2023-06-19T12:22:18;6.80;;;6.07;;
7166;SDS011;3625;51.762;14.320;2023-06-19T12:24:49;6.10;;;5.60;;
7166;SDS011;3625;51.762;14.320;2023-06-19T12:27:17;7.13;;;6.53;;
7166;SDS011;3625;51.762;14.320;2023-06-19T12:29:46;7.32;;;6.25;;
7166;SDS011;3625;51.762;14.320;2023-06-19T12:32:15;6.65;;;6.15;;
7166;SDS011;3625;51.762;14.320;2023-06-19T12:34:45;6.75;;;5.90;;
7166;SDS011;3625;51.762;14.320;2023-06-19T12:37:14;6.90;;;6.30;;
7166;SDS011;3625;51.762;14.320;2023-06-19T12:39:44;6.90;;;6.20;;
7166;SDS011;3625;51.762;14.320;2023-06-19T12:42:12;6.50;;;6.00;;
7166;SDS011;3625;51.762;14.320;2023-06-19T12:44:42;5.88;;;5.38;;
7166;SDS011;3625;51.762;14.320;2023-06-19T12:47:11;6.40;;;5.80;;
7166;SDS011;3625;51.762;14.320;2023-06-19T12:49:46;6.38;;;5.88;;
7166;SDS011;3625;51.762;14.320;2023-06-19T12:52:14;6.93;;;6.32;;
7166;SDS011;3625;51.762;14.320;2023-06-19T12:54:43;6.78;;;6.07;;
7166;SDS011;3625;51.762;14.320;2023-06-19T12:57:11;6.57;;;6.07;;
7166;SDS011;3625;51.762;14.320;2023-06-19T12:59:40;5.70;;;5.30;;
7166;SDS011;3625;51.762;14.320;2023-06-19T13:02:09;6.03;;;5.55;;
7166;SDS011;3625;51.762;14.320;2023-06-19T13:04:40;6.18;;;5.60;;
7166;SDS011;3625;51.762;14.320;2023-06-19T13:07:10;6.53;;;5.93;;
7166;SDS011;3625;51.762;14.320;2023-06-19T13:09:40;7.10;;;6.50;;
7166;SDS011;3625;51.762;14.320;2023-06-19T13:12:09;6.55;;;6.05;;
7166;SDS011;3625;51.762;14.320;2023-06-19T13:14:39;7.07;;;6.53;;
7166;SDS011;3625;51.762;14.320;2023-06-19T13:17:08;6.53;;;6.03;;
7166;SDS011;3625;51.762;14.320;2023-06-19T13:19:37;6.35;;;5.88;;
7166;SDS011;3625;51.762;14.320;2023-06-19T13:22:05;7.40;;;6.30;;
7166;SDS011;3625;51.762;14.320;2023-06-19T13:24:35;6.07;;;5.57;;
7166;SDS011;3625;51.762;14.320;2023-06-19T13:27:04;6.40;;;5.90;;
7166;SDS011;3625;51.762;14.320;2023-06-19T13:29:33;6.65;;;6.05;;
7166;SDS011;3625;51.762;14.320;2023-06-19T13:32:03;6.90;;;6.30;;
7166;SDS011;3625;51.762;14.320;2023-06-19T13:34:32;6.90;;;5.88;;
7166;SDS011;3625;51.762;14.320;2023-06-19T13:37:02;6.72;;;6.22;;
7166;SDS011;3625;51.762;14.320;2023-06-19T13:39:32;6.40;;;5.90;;
7166;SDS011;3625;51.762;14.320;2023-06-19T13:42:02;6.38;;;5.80;;
7166;SDS011;3625;51.762;14.320;2023-06-19T13:44:31;7.00;;;6.40;;
7166;SDS011;3625;51.762;14.320;2023-06-19T13:47:01;7.80;;;7.10;;
7166;SDS011;3625;51.762;14.320;2023-06-19T13:49:30;6.72;;;6.20;;
7166;SDS011;3625;51.762;14.320;2023-06-19T13:51:59;7.53;;;6.82;;
7166;SDS011;3625;51.762;14.320;2023-06-19T13:54:30;5.85;;;5.45;;
7166;SDS011;3625;51.762;14.320;2023-06-19T13:56:59;6.97;;;6.30;;
7166;SDS011;3625;51.762;14.320;2023-06-19T13:59:30;6.40;;;5.78;;
7166;SDS011;3625;51.762;14.320;2023-06-19T14:01:58;6.75;;;6.15;;
7166;SDS011;3625;51.762;14.320;2023-06-19T14:04:27;7.30;;;6.70;;
7166;SDS011;3625;51.762;14.320;2023-06-19T14:06:56;6.78;;;6.07;;
7166;SDS011;3625;51.762;14.320;2023-06-19T14:09:24;6.65;;;6.00;;
7166;SDS011;3625;51.762;14.320;2023-06-19T14:11:53;6.85;;;6.25;;
7166;SDS011;3625;51.762;14.320;2023-06-19T14:14:24;7.13;;;6.47;;
7166;SDS011;3625;51.762;14.320;2023-06-19T14:16:54;7.05;;;6.45;;
7166;SDS011;3625;51.762;14.320;2023-06-19T14:19:27;8.20;;;7.40;;
7166;SDS011;3625;51.762;14.320;2023-06-19T14:21:56;7.57;;;6.97;;
7166;SDS011;3625;51.762;14.320;2023-06-19T14:24:24;6.22;;;5.72;;
7166;SDS011;3625;51.762;14.320;2023-06-19T14:26:53;6.75;;;6.15;;
7166;SDS011;3625;51.762;14.320;2023-06-19T14:29:22;7.07;;;6.35;;
7166;SDS011;3625;51.762;14.320;2023-06-19T14:31:50;6.63;;;6.05;;
7166;SDS011;3625;51.762;14.320;2023-06-19T14:34:21;7.78;;;6.60;;
7166;SDS011;3625;51.762;14.320;2023-06-19T14:36:49;7.30;;;6.60;;
7166;SDS011;3625;51.762;14.320;2023-06-19T14:39:18;7.30;;;6.70;;
7166;SDS011;3625;51.762;14.320;2023-06-19T14:41:47;7.20;;;6.60;;
7166;SDS011;3625;51.762;14.320;2023-06-19T14:44:15;7.95;;;7.22;;
7166;SDS011;3625;51.762;14.320;2023-06-19T14:46:44;7.35;;;6.65;;
7166;SDS011;3625;51.762;14.320;2023-06-19T14:49:12;7.25;;;6.65;;
7166;SDS011;3625;51.762;14.320;2023-06-19T14:51:45;8.60;;;7.03;;
7166;SDS011;3625;51.762;14.320;2023-06-19T14:54:22;6.28;;;5.78;;
7166;SDS011;3625;51.762;14.320;2023-06-19T14:57:03;7.55;;;6.75;;
7166;SDS011;3625;51.762;14.320;2023-06-19T14:59:45;7.00;;;6.28;;
7166;SDS011;3625;51.762;14.320;2023-06-19T15:02:14;7.28;;;6.20;;
7166;SDS011;3625;51.762;14.320;2023-06-19T15:04:46;8.93;;;6.88;;
7166;SDS011;3625;51.762;14.320;2023-06-19T15:07:41;9.07;;;6.57;;
7166;SDS011;3625;51.762;14.320;2023-06-19T15:10:36;9.95;;;6.85;;
7166;SDS011;3625;51.762;14.320;2023-06-19T15:13:13;7.05;;;6.45;;
7166;SDS011;3625;51.762;14.320;2023-06-19T15:15:52;6.97;;;6.38;;
7166;SDS011;3625;51.762;14.320;2023-06-19T15:18:33;6.93;;;6.07;;
7166;SDS011;3625;51.762;14.320;2023-06-19T15:21:11;7.35;;;6.53;;
7166;SDS011;3625;51.762;14.320;2023-06-19T15:23:41;7.45;;;6.72;;